Archival Weather

Chicago O'Hare International

Chicago, Illinois (KORD)

Report from: Friday, August 11, 2023 1:51 PM CDT
Current time: Wednesday, April 24, 2024 2:57 PM CDT

Current weather – Weather history – Daily summaries
Weather forecast

Temperature29.4°C (84.9°F)
Heat index30.4°C (86.7°F)
Dew point17.8°C (64.0°F)
Winds 14 kts (7.2 m/s, 16.1 mph) West-Southwest (250°)
Wind gusts 24 kts (12.3 m/s, 27.6 mph)
Visibility10 mi. (16.1 km)
Clouds Few clouds 4,800 ft. (1,463 m)
Scattered clouds 9,500 ft. (2,896 m)
Scattered clouds 25,000 ft. (7,620 m)
Altimeter29.73 in.Hg (1007 mB)
Relative humidity50 %
Density altitude2,171 ft. (662 m)
Sea-level pressure100.6 kPa (1006 mB, 29.71 in.Hg)
Remarks Automated weather observing station with precipitation discriminator
Flight conditions Visual Meteorological Conditions
Raw dataKORD 111851Z 25014G24KT 10SM FEW048 SCT095 SCT250 29/18 A2973 RMK AO2 SLP061 T02940178
An error has occurred. This application may no longer respond until reloaded. Reload 🗙